createdAt,value
2023-03-01T00:02:02.257Z,14.87
2023-03-01T00:04:30.557Z,17.30
2023-03-01T00:07:00.048Z,17.90
2023-03-01T00:09:28.901Z,17.33
2023-03-01T00:11:57.143Z,16.10
2023-03-01T00:14:27.082Z,18.33
2023-03-01T00:16:57.628Z,18.07
2023-03-01T00:19:30.908Z,15.73
2023-03-01T00:22:00.481Z,17.07
2023-03-01T00:24:28.994Z,21.30
2023-03-01T00:26:58.965Z,21.70
2023-03-01T00:29:27.185Z,18.10
2023-03-01T00:31:55.459Z,17.73
2023-03-01T00:34:23.675Z,16.67
2023-03-01T00:36:55.010Z,18.47
2023-03-01T00:39:23.211Z,22.33
2023-03-01T00:41:51.766Z,17.33
2023-03-01T00:44:19.876Z,19.33
2023-03-01T00:46:48.041Z,15.70
2023-03-01T00:49:16.553Z,17.23
2023-03-01T00:51:44.733Z,19.00
2023-03-01T00:54:15.880Z,18.80
2023-03-01T00:56:43.958Z,18.63
2023-03-01T00:59:12.373Z,17.63
2023-03-01T01:01:41.126Z,15.43
2023-03-01T01:04:11.969Z,20.97
2023-03-01T01:06:46.256Z,18.60
2023-03-01T01:09:19.308Z,16.30
2023-03-01T01:11:49.333Z,15.80
2023-03-01T01:14:18.380Z,19.63
2023-03-01T01:16:46.582Z,20.63
2023-03-01T01:19:15.475Z,19.27
2023-03-01T01:21:44.357Z,19.83
2023-03-01T01:24:13.147Z,20.17
2023-03-01T01:26:44.118Z,16.40
2023-03-01T01:29:13.255Z,19.77
2023-03-01T01:31:43.556Z,14.83
2023-03-01T01:34:17.164Z,18.03
2023-03-01T01:36:46.183Z,17.97
2023-03-01T01:39:14.465Z,19.93
2023-03-01T01:41:45.107Z,17.47
2023-03-01T01:44:17.350Z,19.00
2023-03-01T01:46:49.749Z,21.63
2023-03-01T01:49:33.860Z,17.70
2023-03-01T01:52:08.628Z,16.13
2023-03-01T01:54:44.005Z,21.33
2023-03-01T01:57:16.920Z,19.10
2023-03-01T01:59:50.379Z,16.10
2023-03-01T02:02:19.375Z,19.90
2023-03-01T02:04:49.086Z,19.00
2023-03-01T02:07:20.504Z,17.27
2023-03-01T02:09:51.213Z,21.83
2023-03-01T02:12:24.022Z,17.47
2023-03-01T02:14:52.516Z,16.97
2023-03-01T02:17:21.589Z,18.47
2023-03-01T02:20:08.100Z,19.90
2023-03-01T02:22:39.563Z,17.83
2023-03-01T02:25:19.230Z,19.20
2023-03-01T02:27:57.055Z,16.27
2023-03-01T02:30:27.660Z,18.47
2023-03-01T02:33:04.093Z,17.10
2023-03-01T02:35:37.664Z,19.10
2023-03-01T02:38:09.062Z,14.27
2023-03-01T02:40:40.014Z,18.07
2023-03-01T02:43:12.458Z,19.03
2023-03-01T02:45:46.641Z,19.93
2023-03-01T02:48:15.176Z,20.17
2023-03-01T02:50:56.949Z,17.90
2023-03-01T02:53:31.080Z,16.27
2023-03-01T02:56:00.244Z,17.30
2023-03-01T02:58:28.483Z,18.47
2023-03-01T03:00:58.896Z,16.63
2023-03-01T03:03:27.371Z,16.50
2023-03-01T03:05:55.515Z,20.50
2023-03-01T03:08:25.256Z,16.77
2023-03-01T03:10:54.019Z,17.93
2023-03-01T03:13:23.179Z,18.03
2023-03-01T03:15:51.212Z,17.50
2023-03-01T03:18:21.051Z,18.17
2023-03-01T03:20:53.605Z,19.77
2023-03-01T03:23:22.318Z,17.70
2023-03-01T03:25:51.580Z,19.70
2023-03-01T03:28:20.411Z,19.23
2023-03-01T03:30:49.376Z,17.53
2023-03-01T03:33:17.588Z,20.03
2023-03-01T03:35:49.949Z,16.93
2023-03-01T03:38:23.068Z,19.40
2023-03-01T03:40:53.278Z,20.63
2023-03-01T03:43:24.524Z,17.93
2023-03-01T03:45:55.207Z,18.27
2023-03-01T03:48:23.586Z,19.03
2023-03-01T03:50:55.058Z,20.00
2023-03-01T03:53:25.741Z,20.90
2023-03-01T03:55:54.563Z,18.97
2023-03-01T03:58:24.655Z,17.60
2023-03-01T04:00:54.530Z,20.70
2023-03-01T04:03:23.079Z,17.20
2023-03-01T04:05:54.201Z,18.30
2023-03-01T04:08:24.921Z,18.87
2023-03-01T04:10:58.564Z,19.00
2023-03-01T04:13:27.539Z,15.37
2023-03-01T04:15:57.324Z,15.07
2023-03-01T04:18:29.266Z,19.27
2023-03-01T04:20:59.816Z,18.27
2023-03-01T04:23:28.346Z,15.67
2023-03-01T04:25:59.090Z,20.27
2023-03-01T04:28:30.463Z,20.90
2023-03-01T04:31:01.828Z,19.17
2023-03-01T04:33:30.366Z,16.93
2023-03-01T04:36:00.333Z,17.00
2023-03-01T04:38:28.779Z,18.40
2023-03-01T04:40:57.354Z,17.43
2023-03-01T04:43:26.151Z,16.27
2023-03-01T04:45:54.762Z,18.30
2023-03-01T04:48:23.272Z,16.90
2023-03-01T04:50:52.202Z,17.93
2023-03-01T04:53:22.436Z,19.50
2023-03-01T04:55:50.842Z,18.80
2023-03-01T04:58:19.161Z,20.20
2023-03-01T05:00:47.927Z,19.20
2023-03-01T05:03:19.257Z,19.73
2023-03-01T05:05:49.882Z,17.60
2023-03-01T05:08:19.860Z,18.47
2023-03-01T05:10:54.520Z,18.87
2023-03-01T05:13:23.902Z,17.60
2023-03-01T05:15:57.851Z,17.30
2023-03-01T05:18:27.341Z,17.93
2023-03-01T05:20:59.881Z,21.10
2023-03-01T05:23:29.594Z,17.27
2023-03-01T05:26:02.432Z,20.77
2023-03-01T05:28:30.784Z,19.43
2023-03-01T05:31:00.214Z,19.23
2023-03-01T05:33:29.499Z,17.33
2023-03-01T05:36:01.861Z,20.50
2023-03-01T05:38:30.494Z,18.40
2023-03-01T05:41:00.231Z,17.80
2023-03-01T05:43:32.279Z,17.40
2023-03-01T05:46:00.863Z,18.37
2023-03-01T05:48:29.187Z,20.57
2023-03-01T05:50:58.985Z,25.83
2023-03-01T05:53:28.786Z,21.03
2023-03-01T05:55:58.622Z,22.47
2023-03-01T05:58:27.974Z,24.73
2023-03-01T06:00:57.330Z,18.97
2023-03-01T06:03:25.265Z,19.97
2023-03-01T06:05:58.660Z,22.30
2023-03-01T06:08:28.373Z,19.40
2023-03-01T06:10:57.150Z,19.07
2023-03-01T06:13:29.869Z,18.27
2023-03-01T06:15:58.411Z,19.80
2023-03-01T06:18:27.177Z,20.50
2023-03-01T06:20:58.289Z,19.73
2023-03-01T06:23:41.033Z,17.80
2023-03-01T06:26:11.490Z,18.20
2023-03-01T06:28:45.573Z,17.57
2023-03-01T06:31:16.416Z,15.40
2023-03-01T06:33:45.743Z,20.33
2023-03-01T06:36:17.590Z,19.43
2023-03-01T06:38:50.071Z,20.00
2023-03-01T06:41:20.230Z,20.23
2023-03-01T06:43:50.311Z,22.60
2023-03-01T06:46:19.156Z,18.77
2023-03-01T06:48:48.534Z,19.77
2023-03-01T06:51:17.830Z,19.27
2023-03-01T06:53:48.191Z,21.83
2023-03-01T06:56:16.565Z,23.87
2023-03-01T06:58:45.072Z,21.00
2023-03-01T07:01:15.355Z,23.43
2023-03-01T07:03:45.442Z,20.80
2023-03-01T07:06:13.927Z,19.83
2023-03-01T07:08:43.120Z,25.80
2023-03-01T07:11:11.426Z,21.47
2023-03-01T07:13:40.553Z,19.20
2023-03-01T07:16:09.975Z,18.87
2023-03-01T07:18:39.844Z,23.40
2023-03-01T07:21:09.609Z,19.63
2023-03-01T07:23:37.933Z,20.80
2023-03-01T07:26:07.133Z,19.67
2023-03-01T07:28:49.237Z,22.50
2023-03-01T07:31:17.773Z,19.27
2023-03-01T07:33:50.154Z,26.67
2023-03-01T07:36:18.712Z,21.93
2023-03-01T07:38:53.619Z,20.93
2023-03-01T07:41:22.422Z,19.40
2023-03-01T07:43:51.125Z,20.43
2023-03-01T07:46:20.411Z,24.17
2023-03-01T07:48:50.692Z,22.17
2023-03-01T07:51:21.224Z,21.57
2023-03-01T07:53:50.780Z,19.53
2023-03-01T07:56:19.785Z,18.57
2023-03-01T07:58:49.903Z,17.73
2023-03-01T08:01:22.647Z,17.90
2023-03-01T08:03:52.356Z,24.23
2023-03-01T08:06:21.027Z,21.20
2023-03-01T08:08:49.388Z,25.27
2023-03-01T08:11:19.130Z,21.67
2023-03-01T08:13:51.727Z,21.00
2023-03-01T08:16:23.089Z,21.83
2023-03-01T08:18:52.743Z,18.83
2023-03-01T08:21:21.223Z,22.10
2023-03-01T08:23:49.637Z,20.37
2023-03-01T08:26:20.763Z,21.73
2023-03-01T08:28:50.666Z,22.33
2023-03-01T08:31:21.416Z,22.40
2023-03-01T08:33:52.566Z,22.90
2023-03-01T08:36:22.587Z,24.97
2023-03-01T08:38:50.788Z,24.53
2023-03-01T08:41:19.433Z,24.77
2023-03-01T08:43:48.223Z,19.17
2023-03-01T08:46:16.910Z,18.73
2023-03-01T08:48:45.276Z,19.10
2023-03-01T08:54:21.276Z,27.10
2023-03-01T08:56:50.219Z,21.87
2023-03-01T08:59:19.290Z,21.67
2023-03-01T09:01:47.858Z,19.50
2023-03-01T09:04:18.050Z,19.93
2023-03-01T09:06:46.363Z,23.43
2023-03-01T09:09:19.350Z,20.33
2023-03-01T09:11:48.530Z,22.10
2023-03-01T09:14:17.042Z,21.07
2023-03-01T09:16:46.129Z,21.73
2023-03-01T09:19:14.650Z,21.43
2023-03-01T09:21:53.234Z,20.30
2023-03-01T09:24:25.690Z,24.87
2023-03-01T09:26:56.747Z,22.73
2023-03-01T09:29:25.474Z,21.87
2023-03-01T09:31:56.698Z,20.83
2023-03-01T09:34:26.206Z,20.93
2023-03-01T09:36:54.502Z,23.40
2023-03-01T09:39:26.275Z,15.27
2023-03-01T09:42:03.377Z,21.33
2023-03-01T09:44:37.730Z,21.03
2023-03-01T09:47:06.257Z,18.87
2023-03-01T09:49:37.435Z,20.60
2023-03-01T09:52:15.714Z,18.17
2023-03-01T09:54:46.875Z,35.30
2023-03-01T09:57:24.046Z,17.93
2023-03-01T10:00:19.828Z,21.73
2023-03-01T10:02:55.874Z,21.00
2023-03-01T10:05:52.392Z,23.97
2023-03-01T10:08:41.600Z,19.23
2023-03-01T10:11:25.070Z,22.37
2023-03-01T10:14:00.818Z,19.47
2023-03-01T10:16:36.462Z,22.10
2023-03-01T10:19:08.113Z,23.17
2023-03-01T10:21:43.357Z,21.03
2023-03-01T10:24:14.600Z,18.37
2023-03-01T10:26:51.060Z,19.73
2023-03-01T10:29:22.376Z,23.03
2023-03-01T10:31:52.190Z,21.80
2023-03-01T10:34:24.199Z,21.63
2023-03-01T10:36:55.477Z,20.40
2023-03-01T10:39:26.146Z,19.63
2023-03-01T10:42:01.150Z,19.83
2023-03-01T10:44:42.689Z,24.67
2023-03-01T10:47:17.969Z,22.77
2023-03-01T10:49:58.373Z,21.73
2023-03-01T10:52:30.567Z,21.77
2023-03-01T10:55:00.537Z,22.40
2023-03-01T10:57:42.083Z,26.67
2023-03-01T11:03:40.555Z,24.00
2023-03-01T11:06:22.996Z,22.93
2023-03-01T11:08:51.972Z,23.37
2023-03-01T11:11:26.901Z,22.63
2023-03-01T11:13:59.364Z,20.57
2023-03-01T11:16:37.055Z,25.93
2023-03-01T11:19:21.520Z,20.63
2023-03-01T11:21:56.999Z,23.33
2023-03-01T11:24:33.373Z,21.37
2023-03-01T11:27:08.062Z,21.53
2023-03-01T11:29:48.904Z,23.63
2023-03-01T11:32:18.575Z,22.03
2023-03-01T11:34:54.267Z,25.10
2023-03-01T11:37:32.043Z,25.17
2023-03-01T11:40:13.403Z,24.10
2023-03-01T11:43:01.016Z,23.50
2023-03-01T11:45:41.984Z,21.83
2023-03-01T11:48:50.382Z,19.77
2023-03-01T11:51:40.356Z,23.63
2023-03-01T11:57:57.958Z,21.00
2023-03-01T12:04:31.568Z,24.43
2023-03-01T12:07:12.502Z,21.87
2023-03-01T12:10:25.330Z,23.77
2023-03-01T12:13:09.650Z,24.57
2023-03-01T12:15:55.896Z,21.10
2023-03-01T12:18:55.128Z,20.73
2023-03-01T12:21:37.419Z,22.00
2023-03-01T12:24:41.708Z,23.70
2023-03-01T12:27:36.116Z,23.17
2023-03-01T12:30:22.301Z,23.53
2023-03-01T12:33:15.699Z,22.33
2023-03-01T12:36:07.142Z,21.30
2023-03-01T12:38:42.469Z,22.93
2023-03-01T12:41:26.186Z,24.50
2023-03-01T12:44:06.317Z,22.67
2023-03-01T12:46:47.049Z,22.80
2023-03-01T12:49:20.040Z,22.93
2023-03-01T12:51:57.548Z,21.27
2023-03-01T12:54:30.610Z,22.37
2023-03-01T12:57:02.517Z,23.07
2023-03-01T12:59:37.666Z,27.93
2023-03-01T13:02:17.747Z,22.27
2023-03-01T13:05:05.044Z,22.70
2023-03-01T13:07:39.385Z,19.77
2023-03-01T13:10:25.885Z,24.17
2023-03-01T13:13:03.548Z,23.83
2023-03-01T13:15:35.490Z,24.60
2023-03-01T13:18:06.666Z,21.97
2023-03-01T13:20:49.477Z,27.43
2023-03-01T13:23:28.319Z,23.67
2023-03-01T13:26:12.488Z,22.13
2023-03-01T13:29:06.341Z,24.23
2023-03-01T13:32:02.927Z,29.03
2023-03-01T13:34:49.865Z,29.53
2023-03-01T13:37:30.432Z,21.63
2023-03-01T13:40:02.592Z,27.17
2023-03-01T13:42:48.172Z,24.70
2023-03-01T13:45:26.507Z,22.73
2023-03-01T13:48:01.034Z,25.60
2023-03-01T13:50:36.117Z,30.83
2023-03-01T13:53:09.371Z,22.50
2023-03-01T13:55:40.666Z,24.70
2023-03-01T13:58:19.501Z,24.30
2023-03-01T14:00:48.305Z,23.37
2023-03-01T14:03:22.323Z,24.40
2023-03-01T14:06:15.226Z,20.90
2023-03-01T14:08:47.683Z,20.17
2023-03-01T14:11:36.563Z,21.77
2023-03-01T14:14:31.955Z,22.27
2023-03-01T14:17:13.512Z,18.00
2023-03-01T14:19:45.896Z,22.00
2023-03-01T14:22:21.964Z,24.00
2023-03-01T14:24:54.958Z,25.17
2023-03-01T14:27:23.688Z,37.03
2023-03-01T14:29:58.934Z,22.27
2023-03-01T14:32:28.829Z,22.77
2023-03-01T14:35:00.560Z,20.17
2023-03-01T14:37:31.277Z,25.47
2023-03-01T14:40:03.201Z,22.53
2023-03-01T14:42:36.573Z,18.73
2023-03-01T14:45:06.461Z,20.33
2023-03-01T14:47:37.593Z,20.07
2023-03-01T14:50:10.177Z,17.33
2023-03-01T14:52:41.146Z,21.03
2023-03-01T14:55:20.552Z,19.73
2023-03-01T14:57:53.683Z,25.07
2023-03-01T15:00:25.369Z,17.33
2023-03-01T15:02:55.796Z,19.03
2023-03-01T15:05:30.907Z,17.67
2023-03-01T15:08:00.592Z,20.37
2023-03-01T15:10:34.968Z,17.97
2023-03-01T15:13:14.048Z,20.50
2023-03-01T15:15:51.711Z,27.03
2023-03-01T15:18:38.016Z,17.03
2023-03-01T15:21:19.326Z,16.60
2023-03-01T15:26:58.906Z,19.70
2023-03-01T15:29:31.320Z,28.53
2023-03-01T15:32:01.950Z,24.03
2023-03-01T15:34:33.310Z,17.00
2023-03-01T15:37:03.542Z,17.03
2023-03-01T15:39:39.530Z,16.90
2023-03-01T15:42:13.434Z,17.87
2023-03-01T15:44:46.304Z,18.07
2023-03-01T15:47:30.161Z,22.53
2023-03-01T15:50:04.390Z,16.87
2023-03-01T15:55:25.578Z,20.17
2023-03-01T15:58:02.398Z,20.37
2023-03-01T16:00:31.892Z,17.47
2023-03-01T16:03:02.473Z,18.53
2023-03-01T16:05:34.220Z,18.50
2023-03-01T16:08:17.605Z,16.63
2023-03-01T16:10:46.967Z,20.00
2023-03-01T16:16:21.450Z,29.50
2023-03-01T16:18:49.706Z,16.20
2023-03-01T16:21:39.098Z,16.33
2023-03-01T16:24:11.334Z,18.63
2023-03-01T16:26:51.278Z,14.37
2023-03-01T16:32:46.450Z,16.20
2023-03-01T16:35:19.833Z,27.43
2023-03-01T16:37:49.198Z,18.00
2023-03-01T16:40:21.903Z,19.97
2023-03-01T16:42:51.251Z,19.93
2023-03-01T16:45:25.275Z,19.53
2023-03-01T16:51:26.497Z,22.17
2023-03-01T16:53:56.005Z,17.97
2023-03-01T16:59:22.844Z,16.80
2023-03-01T17:02:05.519Z,22.77
2023-03-01T17:04:37.934Z,25.83
2023-03-01T17:10:07.384Z,21.97
2023-03-01T17:12:36.738Z,16.20
2023-03-01T17:15:08.797Z,20.43
2023-03-01T17:17:38.969Z,18.93
2023-03-01T17:20:08.638Z,16.23
2023-03-01T17:22:38.051Z,14.87
2023-03-01T17:25:09.276Z,13.17
2023-03-01T17:27:39.253Z,16.77
2023-03-01T17:30:11.719Z,17.27
2023-03-01T17:32:41.737Z,18.20
2023-03-01T17:35:12.008Z,15.00
2023-03-01T17:37:46.480Z,18.97
2023-03-01T17:40:15.438Z,18.77
2023-03-01T17:42:44.128Z,17.90
2023-03-01T17:45:12.631Z,17.13
2023-03-01T17:47:41.250Z,18.77
2023-03-01T17:50:22.628Z,17.77
2023-03-01T17:52:52.341Z,22.13
2023-03-01T17:55:21.226Z,23.43
2023-03-01T17:57:50.499Z,24.83
2023-03-01T18:00:22.550Z,25.83
2023-03-01T18:02:51.149Z,24.80
2023-03-01T18:05:19.438Z,29.07
2023-03-01T18:07:47.676Z,29.70
2023-03-01T18:10:19.589Z,29.83
2023-03-01T18:12:57.089Z,28.13
2023-03-01T18:15:25.465Z,26.60
2023-03-01T18:17:54.148Z,33.07
2023-03-01T18:20:24.716Z,30.40
2023-03-01T18:22:52.997Z,29.90
2023-03-01T18:25:22.739Z,28.47
2023-03-01T18:27:52.680Z,31.77
2023-03-01T18:30:21.312Z,32.87
2023-03-01T18:32:56.304Z,30.87
2023-03-01T18:35:24.753Z,28.80
2023-03-01T18:37:52.935Z,28.13
2023-03-01T18:40:22.884Z,33.37
2023-03-01T18:42:50.903Z,35.83
2023-03-01T18:45:19.292Z,37.70
2023-03-01T18:47:49.898Z,35.80
2023-03-01T18:50:21.037Z,34.67
2023-03-01T18:52:49.243Z,34.03
2023-03-01T18:55:17.663Z,33.77
2023-03-01T18:57:47.368Z,33.50
2023-03-01T19:00:18.633Z,30.40
2023-03-01T19:02:47.595Z,33.27
2023-03-01T19:05:17.357Z,37.20
2023-03-01T19:07:46.126Z,36.10
2023-03-01T19:10:14.255Z,36.00
2023-03-01T19:12:42.513Z,35.07
2023-03-01T19:15:12.856Z,36.83
2023-03-01T19:17:40.965Z,36.53
2023-03-01T19:20:10.499Z,36.47
2023-03-01T19:22:38.837Z,46.30
2023-03-01T19:25:08.133Z,39.50
2023-03-01T19:27:36.829Z,38.87
2023-03-01T19:30:05.622Z,43.40
2023-03-01T19:32:35.361Z,45.80
2023-03-01T19:35:03.962Z,41.47
2023-03-01T19:37:35.067Z,44.67
2023-03-01T19:40:03.611Z,35.10
2023-03-01T19:42:34.268Z,38.80
2023-03-01T19:45:03.611Z,29.10
2023-03-01T19:47:32.031Z,32.57
2023-03-01T19:50:01.928Z,33.63
2023-03-01T19:52:30.495Z,29.77
2023-03-01T19:55:08.802Z,27.57
2023-03-01T19:57:38.745Z,35.67
2023-03-01T20:00:12.233Z,27.13
2023-03-01T20:02:41.163Z,25.73
2023-03-01T20:05:12.758Z,27.77
2023-03-01T20:07:43.416Z,23.30
2023-03-01T20:10:14.051Z,24.27
2023-03-01T20:12:42.632Z,25.13
2023-03-01T20:15:12.173Z,23.93
2023-03-01T20:17:40.717Z,25.07
2023-03-01T20:20:14.245Z,24.33
2023-03-01T20:22:43.526Z,21.43
2023-03-01T20:25:15.544Z,20.57
2023-03-01T20:27:47.753Z,22.03
2023-03-01T20:30:17.859Z,17.53
2023-03-01T20:32:47.485Z,21.70
2023-03-01T20:35:18.002Z,21.10
2023-03-01T20:37:46.341Z,19.50
2023-03-01T20:40:14.959Z,19.47
2023-03-01T20:42:43.874Z,20.00
2023-03-01T20:45:12.734Z,16.60
2023-03-01T20:47:40.751Z,19.33
2023-03-01T20:50:09.592Z,18.47
2023-03-01T20:52:47.052Z,16.43
2023-03-01T20:55:16.196Z,20.37
2023-03-01T20:57:44.986Z,20.57
2023-03-01T21:00:13.896Z,20.40
2023-03-01T21:02:42.035Z,30.20
2023-03-01T21:05:11.425Z,16.17
2023-03-01T21:07:41.094Z,22.17
2023-03-01T21:10:15.741Z,20.43
2023-03-01T21:12:43.930Z,28.83
2023-03-01T21:15:23.451Z,19.63
2023-03-01T21:17:58.890Z,18.53
2023-03-01T21:20:26.981Z,19.77
2023-03-01T21:22:56.580Z,20.80
2023-03-01T21:25:24.898Z,20.27
2023-03-01T21:27:53.082Z,19.73
2023-03-01T21:30:21.385Z,25.63
2023-03-01T21:32:49.578Z,20.60
2023-03-01T21:35:18.086Z,19.40
2023-03-01T21:37:46.534Z,21.30
2023-03-01T21:40:17.904Z,19.53
2023-03-01T21:42:48.659Z,16.53
2023-03-01T21:45:17.174Z,23.43
2023-03-01T21:47:45.368Z,18.80
2023-03-01T21:50:14.433Z,20.97
2023-03-01T21:52:42.790Z,21.17
2023-03-01T21:55:13.960Z,22.23
2023-03-01T21:57:44.645Z,25.70
2023-03-01T22:00:15.510Z,19.57
2023-03-01T22:02:43.613Z,20.90
2023-03-01T22:05:12.132Z,18.03
2023-03-01T22:07:40.227Z,18.07
2023-03-01T22:10:09.039Z,21.37
2023-03-01T22:12:38.605Z,21.23
2023-03-01T22:15:09.521Z,19.03
2023-03-01T22:17:37.581Z,19.83
2023-03-01T22:20:06.692Z,24.03
2023-03-01T22:22:35.413Z,21.93
2023-03-01T22:25:03.819Z,17.30
2023-03-01T22:27:32.212Z,20.93
2023-03-01T22:30:00.433Z,19.70
2023-03-01T22:32:30.080Z,16.47
2023-03-01T22:34:58.271Z,22.47
2023-03-01T22:37:26.672Z,21.33
2023-03-01T22:39:54.955Z,21.83
2023-03-01T22:42:26.032Z,21.47
2023-03-01T22:44:54.367Z,20.70
2023-03-01T22:47:24.674Z,23.00
2023-03-01T22:49:56.307Z,16.37
2023-03-01T22:52:24.538Z,19.53
2023-03-01T22:54:55.831Z,21.87
2023-03-01T22:57:24.053Z,22.63
2023-03-01T22:59:52.567Z,21.90
2023-03-01T23:02:20.883Z,18.33
2023-03-01T23:04:49.150Z,22.00
2023-03-01T23:07:18.835Z,20.77
2023-03-01T23:09:47.826Z,21.63
2023-03-01T23:12:17.016Z,22.53
2023-03-01T23:14:45.098Z,23.17
2023-03-01T23:17:14.702Z,21.10
2023-03-01T23:19:42.970Z,18.30
2023-03-01T23:22:11.415Z,22.63
2023-03-01T23:24:41.454Z,21.90
2023-03-01T23:27:10.166Z,22.70
2023-03-01T23:29:38.646Z,21.43
2023-03-01T23:32:07.370Z,24.33
2023-03-01T23:34:35.878Z,21.03
2023-03-01T23:37:04.557Z,26.33
2023-03-01T23:39:33.493Z,22.67
2023-03-01T23:42:03.514Z,21.87
2023-03-01T23:44:31.862Z,19.13
2023-03-01T23:47:01.084Z,18.37
2023-03-01T23:49:29.263Z,29.07
2023-03-01T23:51:58.673Z,22.67
2023-03-01T23:54:27.560Z,18.83
2023-03-01T23:56:56.237Z,23.87
2023-03-01T23:59:26.152Z,21.40
